sensor_id;sensor_type;location;lat;lon;timestamp;temperature;humidity
24636;DHT22;12772;49.794;10.024;2022-09-03T00:01:12;19.20;30.70
24636;DHT22;12772;49.794;10.024;2022-09-03T00:05:32;19.20;30.90
24636;DHT22;12772;49.794;10.024;2022-09-03T00:09:42;19.20;30.90
24636;DHT22;12772;49.794;10.024;2022-09-03T00:18:11;19.20;31.10
24636;DHT22;12772;49.794;10.024;2022-09-03T00:22:19;19.30;31.20
24636;DHT22;12772;49.794;10.024;2022-09-03T00:26:28;19.30;31.10
24636;DHT22;12772;49.794;10.024;2022-09-03T00:30:34;19.30;31.10
24636;DHT22;12772;49.794;10.024;2022-09-03T00:34:44;19.30;31.20
24636;DHT22;12772;49.794;10.024;2022-09-03T00:38:47;19.20;31.10
24636;DHT22;12772;49.794;10.024;2022-09-03T00:56:06;18.90;31.60
24636;DHT22;12772;49.794;10.024;2022-09-03T01:00:16;18.90;31.60
24636;DHT22;12772;49.794;10.024;2022-09-03T01:05:26;18.90;32.00
24636;DHT22;12772;49.794;10.024;2022-09-03T01:13:16;18.90;32.10
24636;DHT22;12772;49.794;10.024;2022-09-03T01:30:06;18.80;32.70
24636;DHT22;12772;49.794;10.024;2022-09-03T01:34:50;18.70;32.60
24636;DHT22;12772;49.794;10.024;2022-09-03T01:39:03;18.70;32.60
24636;DHT22;12772;49.794;10.024;2022-09-03T01:52:18;18.60;32.50
24636;DHT22;12772;49.794;10.024;2022-09-03T02:00:55;18.40;33.10
24636;DHT22;12772;49.794;10.024;2022-09-03T02:05:17;18.40;33.10
24636;DHT22;12772;49.794;10.024;2022-09-03T02:09:20;18.30;33.20
24636;DHT22;12772;49.794;10.024;2022-09-03T02:13:26;18.30;33.50
24636;DHT22;12772;49.794;10.024;2022-09-03T02:17:32;18.30;33.60
24636;DHT22;12772;49.794;10.024;2022-09-03T02:21:38;18.20;33.50
24636;DHT22;12772;49.794;10.024;2022-09-03T02:25:46;18.10;33.80
24636;DHT22;12772;49.794;10.024;2022-09-03T02:29:49;18.10;34.00
24636;DHT22;12772;49.794;10.024;2022-09-03T02:33:51;18.00;33.90
24636;DHT22;12772;49.794;10.024;2022-09-03T02:37:53;18.00;34.20
24636;DHT22;12772;49.794;10.024;2022-09-03T02:41:56;18.00;34.30
24636;DHT22;12772;49.794;10.024;2022-09-03T02:46:02;17.90;34.50
24636;DHT22;12772;49.794;10.024;2022-09-03T02:50:05;17.90;34.50
24636;DHT22;12772;49.794;10.024;2022-09-03T02:54:11;17.80;34.40
24636;DHT22;12772;49.794;10.024;2022-09-03T02:58:13;17.70;34.70
24636;DHT22;12772;49.794;10.024;2022-09-03T03:02:15;17.70;34.80
24636;DHT22;12772;49.794;10.024;2022-09-03T03:06:18;17.60;35.00
24636;DHT22;12772;49.794;10.024;2022-09-03T03:10:20;17.60;35.20
24636;DHT22;12772;49.794;10.024;2022-09-03T03:14:22;17.50;35.30
24636;DHT22;12772;49.794;10.024;2022-09-03T03:18:24;17.50;35.30
24636;DHT22;12772;49.794;10.024;2022-09-03T03:22:27;17.40;35.30
24636;DHT22;12772;49.794;10.024;2022-09-03T03:26:29;17.40;35.40
24636;DHT22;12772;49.794;10.024;2022-09-03T03:30:33;17.40;35.60
24636;DHT22;12772;49.794;10.024;2022-09-03T03:34:35;17.40;35.70
24636;DHT22;12772;49.794;10.024;2022-09-03T03:38:38;17.50;35.50
24636;DHT22;12772;49.794;10.024;2022-09-03T03:42:42;17.50;35.40
24636;DHT22;12772;49.794;10.024;2022-09-03T03:46:45;17.50;35.90
24636;DHT22;12772;49.794;10.024;2022-09-03T03:50:48;17.60;35.60
24636;DHT22;12772;49.794;10.024;2022-09-03T03:54:50;17.60;35.60
24636;DHT22;12772;49.794;10.024;2022-09-03T03:58:53;17.60;35.50
24636;DHT22;12772;49.794;10.024;2022-09-03T04:02:55;17.60;35.50
24636;DHT22;12772;49.794;10.024;2022-09-03T04:06:58;17.60;35.50
24636;DHT22;12772;49.794;10.024;2022-09-03T04:11:02;17.60;35.50
24636;DHT22;12772;49.794;10.024;2022-09-03T04:15:05;17.60;35.60
24636;DHT22;12772;49.794;10.024;2022-09-03T04:19:07;17.60;35.60
24636;DHT22;12772;49.794;10.024;2022-09-03T04:23:09;17.60;35.90
24636;DHT22;12772;49.794;10.024;2022-09-03T04:27:12;17.50;35.90
24636;DHT22;12772;49.794;10.024;2022-09-03T04:31:16;17.50;36.00
24636;DHT22;12772;49.794;10.024;2022-09-03T04:35:19;17.50;36.10
24636;DHT22;12772;49.794;10.024;2022-09-03T04:39:21;17.40;36.10
24636;DHT22;12772;49.794;10.024;2022-09-03T04:43:23;17.40;36.40
24636;DHT22;12772;49.794;10.024;2022-09-03T04:47:25;17.40;36.50
24636;DHT22;12772;49.794;10.024;2022-09-03T04:51:28;17.30;36.60
24636;DHT22;12772;49.794;10.024;2022-09-03T04:55:35;17.30;36.80
24636;DHT22;12772;49.794;10.024;2022-09-03T04:59:38;17.30;37.00
24636;DHT22;12772;49.794;10.024;2022-09-03T05:03:40;17.30;37.30
24636;DHT22;12772;49.794;10.024;2022-09-03T05:07:43;17.30;37.40
24636;DHT22;12772;49.794;10.024;2022-09-03T05:11:45;17.30;37.60
24636;DHT22;12772;49.794;10.024;2022-09-03T05:15:47;17.30;37.80
24636;DHT22;12772;49.794;10.024;2022-09-03T05:19:49;17.40;37.80
24636;DHT22;12772;49.794;10.024;2022-09-03T05:23:52;17.40;38.20
24636;DHT22;12772;49.794;10.024;2022-09-03T05:27:54;17.40;38.30
24636;DHT22;12772;49.794;10.024;2022-09-03T05:31:56;17.40;38.30
24636;DHT22;12772;49.794;10.024;2022-09-03T05:36:03;17.40;38.30
24636;DHT22;12772;49.794;10.024;2022-09-03T05:40:06;17.40;38.30
24636;DHT22;12772;49.794;10.024;2022-09-03T05:44:11;17.40;38.30
24636;DHT22;12772;49.794;10.024;2022-09-03T05:48:13;17.50;38.40
24636;DHT22;12772;49.794;10.024;2022-09-03T05:52:15;17.50;38.40
24636;DHT22;12772;49.794;10.024;2022-09-03T05:56:20;17.60;38.50
24636;DHT22;12772;49.794;10.024;2022-09-03T06:00:23;17.60;38.50
24636;DHT22;12772;49.794;10.024;2022-09-03T06:04:25;17.70;38.60
24636;DHT22;12772;49.794;10.024;2022-09-03T06:08:27;17.70;38.70
24636;DHT22;12772;49.794;10.024;2022-09-03T06:12:29;17.70;38.60
24636;DHT22;12772;49.794;10.024;2022-09-03T06:16:32;17.80;39.40
24636;DHT22;12772;49.794;10.024;2022-09-03T06:20:34;17.90;38.90
24636;DHT22;12772;49.794;10.024;2022-09-03T06:24:36;18.00;38.90
24636;DHT22;12772;49.794;10.024;2022-09-03T06:28:40;18.00;39.00
24636;DHT22;12772;49.794;10.024;2022-09-03T06:32:46;18.10;39.10
24636;DHT22;12772;49.794;10.024;2022-09-03T06:36:50;18.20;39.20
24636;DHT22;12772;49.794;10.024;2022-09-03T06:40:54;18.20;38.80
24636;DHT22;12772;49.794;10.024;2022-09-03T06:44:56;18.30;38.50
24636;DHT22;12772;49.794;10.024;2022-09-03T06:48:58;18.40;38.70
24636;DHT22;12772;49.794;10.024;2022-09-03T06:53:00;18.50;38.00
24636;DHT22;12772;49.794;10.024;2022-09-03T06:57:02;18.50;38.20
24636;DHT22;12772;49.794;10.024;2022-09-03T07:01:06;18.60;37.50
24636;DHT22;12772;49.794;10.024;2022-09-03T07:05:09;18.70;37.50
24636;DHT22;12772;49.794;10.024;2022-09-03T07:09:11;18.70;37.40
24636;DHT22;12772;49.794;10.024;2022-09-03T07:13:15;18.80;37.50
24636;DHT22;12772;49.794;10.024;2022-09-03T07:17:17;18.90;37.50
24636;DHT22;12772;49.794;10.024;2022-09-03T07:21:21;19.00;37.20
24636;DHT22;12772;49.794;10.024;2022-09-03T07:25:24;19.10;37.00
24636;DHT22;12772;49.794;10.024;2022-09-03T07:29:27;19.30;37.10
24636;DHT22;12772;49.794;10.024;2022-09-03T07:33:29;19.40;36.80
24636;DHT22;12772;49.794;10.024;2022-09-03T07:37:31;19.50;36.60
24636;DHT22;12772;49.794;10.024;2022-09-03T07:41:33;19.60;36.50
24636;DHT22;12772;49.794;10.024;2022-09-03T07:45:35;19.60;36.10
24636;DHT22;12772;49.794;10.024;2022-09-03T07:49:38;19.70;36.00
24636;DHT22;12772;49.794;10.024;2022-09-03T07:53:41;19.90;35.70
24636;DHT22;12772;49.794;10.024;2022-09-03T07:57:43;20.00;35.40
24636;DHT22;12772;49.794;10.024;2022-09-03T08:01:45;20.20;34.60
24636;DHT22;12772;49.794;10.024;2022-09-03T08:05:47;20.30;34.40
24636;DHT22;12772;49.794;10.024;2022-09-03T08:09:49;20.50;34.40
24636;DHT22;12772;49.794;10.024;2022-09-03T08:13:57;20.60;34.00
24636;DHT22;12772;49.794;10.024;2022-09-03T08:18:01;20.70;33.70
24636;DHT22;12772;49.794;10.024;2022-09-03T08:22:03;20.80;33.50
24636;DHT22;12772;49.794;10.024;2022-09-03T08:26:06;21.10;32.70
24636;DHT22;12772;49.794;10.024;2022-09-03T08:30:08;21.20;32.20
24636;DHT22;12772;49.794;10.024;2022-09-03T08:34:11;21.30;32.10
24636;DHT22;12772;49.794;10.024;2022-09-03T08:38:14;21.40;32.20
24636;DHT22;12772;49.794;10.024;2022-09-03T08:50:58;21.60;32.20
24636;DHT22;12772;49.794;10.024;2022-09-03T08:59:09;21.70;32.40
24636;DHT22;12772;49.794;10.024;2022-09-03T09:08:05;22.00;31.80
24636;DHT22;12772;49.794;10.024;2022-09-03T09:21:08;22.60;30.80
24636;DHT22;12772;49.794;10.024;2022-09-03T09:25:17;22.80;30.50
24636;DHT22;12772;49.794;10.024;2022-09-03T09:29:20;23.00;30.20
24636;DHT22;12772;49.794;10.024;2022-09-03T09:33:23;23.20;30.40
24636;DHT22;12772;49.794;10.024;2022-09-03T09:37:25;23.40;30.60
24636;DHT22;12772;49.794;10.024;2022-09-03T09:41:27;23.50;30.20
24636;DHT22;12772;49.794;10.024;2022-09-03T09:45:29;23.60;30.10
24636;DHT22;12772;49.794;10.024;2022-09-03T09:49:37;23.70;29.90
24636;DHT22;12772;49.794;10.024;2022-09-03T09:53:45;23.80;29.70
24636;DHT22;12772;49.794;10.024;2022-09-03T09:57:47;23.90;30.00
24636;DHT22;12772;49.794;10.024;2022-09-03T10:01:49;23.90;29.50
24636;DHT22;12772;49.794;10.024;2022-09-03T10:06:03;24.00;29.50
24636;DHT22;12772;49.794;10.024;2022-09-03T10:10:27;24.10;29.90
24636;DHT22;12772;49.794;10.024;2022-09-03T10:14:41;24.40;29.50
24636;DHT22;12772;49.794;10.024;2022-09-03T10:18:59;24.50;29.50
24636;DHT22;12772;49.794;10.024;2022-09-03T10:27:09;24.60;28.70
24636;DHT22;12772;49.794;10.024;2022-09-03T10:35:46;24.70;28.90
24636;DHT22;12772;49.794;10.024;2022-09-03T10:40:12;24.70;28.90
24636;DHT22;12772;49.794;10.024;2022-09-03T10:44:28;24.80;29.10
24636;DHT22;12772;49.794;10.024;2022-09-03T10:57:44;25.40;28.50
24636;DHT22;12772;49.794;10.024;2022-09-03T11:06:24;26.00;28.00
24636;DHT22;12772;49.794;10.024;2022-09-03T11:10:32;26.30;27.40
24636;DHT22;12772;49.794;10.024;2022-09-03T11:14:46;26.40;27.10
24636;DHT22;12772;49.794;10.024;2022-09-03T11:19:11;26.30;27.00
24636;DHT22;12772;49.794;10.024;2022-09-03T11:23:15;26.20;27.00
24636;DHT22;12772;49.794;10.024;2022-09-03T11:31:53;26.30;27.50
24636;DHT22;12772;49.794;10.024;2022-09-03T11:35:59;26.40;27.10
24636;DHT22;12772;49.794;10.024;2022-09-03T11:40:05;26.50;27.20
24636;DHT22;12772;49.794;10.024;2022-09-03T11:44:18;26.50;27.20
24636;DHT22;12772;49.794;10.024;2022-09-03T11:52:34;26.80;27.40
24636;DHT22;12772;49.794;10.024;2022-09-03T11:56:41;27.10;27.60
24636;DHT22;12772;49.794;10.024;2022-09-03T12:00:43;27.30;27.10
24636;DHT22;12772;49.794;10.024;2022-09-03T12:09:33;27.40;26.80
24636;DHT22;12772;49.794;10.024;2022-09-03T12:14:02;27.40;26.70
24636;DHT22;12772;49.794;10.024;2022-09-03T12:18:18;27.30;27.00
24636;DHT22;12772;49.794;10.024;2022-09-03T12:22:25;27.40;27.10
24636;DHT22;12772;49.794;10.024;2022-09-03T12:26:28;27.40;27.30
24636;DHT22;12772;49.794;10.024;2022-09-03T12:30:30;27.40;26.60
24636;DHT22;12772;49.794;10.024;2022-09-03T12:34:32;27.40;26.70
24636;DHT22;12772;49.794;10.024;2022-09-03T12:38:34;27.30;26.70
24636;DHT22;12772;49.794;10.024;2022-09-03T12:42:36;27.30;26.80
24636;DHT22;12772;49.794;10.024;2022-09-03T12:46:38;27.30;26.90
24636;DHT22;12772;49.794;10.024;2022-09-03T12:50:42;27.10;26.70
24636;DHT22;12772;49.794;10.024;2022-09-03T12:58:56;26.90;27.00
24636;DHT22;12772;49.794;10.024;2022-09-03T13:03:07;26.80;27.40
24636;DHT22;12772;49.794;10.024;2022-09-03T13:07:23;26.60;27.20
24636;DHT22;12772;49.794;10.024;2022-09-03T13:11:27;26.50;27.30
24636;DHT22;12772;49.794;10.024;2022-09-03T13:15:30;26.40;27.80
24636;DHT22;12772;49.794;10.024;2022-09-03T13:20:09;26.20;28.30
24636;DHT22;12772;49.794;10.024;2022-09-03T13:28:57;26.10;28.50
24636;DHT22;12772;49.794;10.024;2022-09-03T13:33:13;26.00;28.70
24636;DHT22;12772;49.794;10.024;2022-09-03T13:37:28;26.00;28.80
24636;DHT22;12772;49.794;10.024;2022-09-03T13:46:01;26.00;28.80
24636;DHT22;12772;49.794;10.024;2022-09-03T13:50:10;26.00;29.00
24636;DHT22;12772;49.794;10.024;2022-09-03T13:54:45;26.00;28.90
24636;DHT22;12772;49.794;10.024;2022-09-03T13:58:59;26.10;28.90
24636;DHT22;12772;49.794;10.024;2022-09-03T14:13:13;26.30;29.00
24636;DHT22;12772;49.794;10.024;2022-09-03T14:21:50;26.40;28.60
24636;DHT22;12772;49.794;10.024;2022-09-03T14:25:56;26.40;28.50
24636;DHT22;12772;49.794;10.024;2022-09-03T14:30:02;26.40;28.60
24636;DHT22;12772;49.794;10.024;2022-09-03T14:39:02;26.40;28.30
24636;DHT22;12772;49.794;10.024;2022-09-03T15:01:37;26.80;28.60
24636;DHT22;12772;49.794;10.024;2022-09-03T15:36:02;27.30;28.00
24636;DHT22;12772;49.794;10.024;2022-09-03T15:44:15;27.40;27.80
24636;DHT22;12772;49.794;10.024;2022-09-03T15:49:02;27.40;27.80
24636;DHT22;12772;49.794;10.024;2022-09-03T16:05:45;27.30;27.70
24636;DHT22;12772;49.794;10.024;2022-09-03T16:09:58;27.30;27.70
24636;DHT22;12772;49.794;10.024;2022-09-03T16:14:14;27.30;27.70
24636;DHT22;12772;49.794;10.024;2022-09-03T16:18:38;27.30;27.70
24636;DHT22;12772;49.794;10.024;2022-09-03T16:22:49;27.20;27.60
24636;DHT22;12772;49.794;10.024;2022-09-03T16:27:02;27.20;27.60
24636;DHT22;12772;49.794;10.024;2022-09-03T16:44:19;27.10;27.90
24636;DHT22;12772;49.794;10.024;2022-09-03T16:53:15;26.90;28.20
24636;DHT22;12772;49.794;10.024;2022-09-03T17:02:01;26.60;28.90
24636;DHT22;12772;49.794;10.024;2022-09-03T17:28:27;25.50;30.30
24636;DHT22;12772;49.794;10.024;2022-09-03T17:32:27;25.40;30.60
24636;DHT22;12772;49.794;10.024;2022-09-03T17:36:36;25.30;30.80
24636;DHT22;12772;49.794;10.024;2022-09-03T17:45:15;25.10;31.10
24636;DHT22;12772;49.794;10.024;2022-09-03T17:49:48;25.00;30.90
24636;DHT22;12772;49.794;10.024;2022-09-03T17:54:41;24.90;31.00
24636;DHT22;12772;49.794;10.024;2022-09-03T17:58:38;24.90;31.10
24636;DHT22;12772;49.794;10.024;2022-09-03T18:03:01;24.80;30.90
24636;DHT22;12772;49.794;10.024;2022-09-03T18:07:12;24.70;31.80
24636;DHT22;12772;49.794;10.024;2022-09-03T18:11:38;24.70;31.40
24636;DHT22;12772;49.794;10.024;2022-09-03T18:16:02;24.70;32.00
24636;DHT22;12772;49.794;10.024;2022-09-03T18:20:10;24.60;32.70
24636;DHT22;12772;49.794;10.024;2022-09-03T18:24:45;24.50;34.70
24636;DHT22;12772;49.794;10.024;2022-09-03T18:29:34;24.40;35.00
24636;DHT22;12772;49.794;10.024;2022-09-03T18:33:54;24.40;35.70
24636;DHT22;12772;49.794;10.024;2022-09-03T18:38:26;24.30;36.30
24636;DHT22;12772;49.794;10.024;2022-09-03T18:56:49;23.90;41.10
24636;DHT22;12772;49.794;10.024;2022-09-03T19:01:31;23.90;42.80
24636;DHT22;12772;49.794;10.024;2022-09-03T19:10:23;23.70;45.40
24636;DHT22;12772;49.794;10.024;2022-09-03T19:19:27;23.50;46.00
24636;DHT22;12772;49.794;10.024;2022-09-03T19:23:52;23.50;46.20
24636;DHT22;12772;49.794;10.024;2022-09-03T19:28:20;23.40;46.20
24636;DHT22;12772;49.794;10.024;2022-09-03T19:33:10;23.30;46.80
24636;DHT22;12772;49.794;10.024;2022-09-03T19:37:40;23.30;47.00
24636;DHT22;12772;49.794;10.024;2022-09-03T19:42:26;23.20;47.90
24636;DHT22;12772;49.794;10.024;2022-09-03T19:46:57;23.20;48.30
24636;DHT22;12772;49.794;10.024;2022-09-03T19:51:39;23.10;48.80
24636;DHT22;12772;49.794;10.024;2022-09-03T19:56:09;23.10;48.80
24636;DHT22;12772;49.794;10.024;2022-09-03T20:00:30;23.00;49.00
24636;DHT22;12772;49.794;10.024;2022-09-03T20:04:57;22.80;49.30
24636;DHT22;12772;49.794;10.024;2022-09-03T20:09:19;22.70;49.00
24636;DHT22;12772;49.794;10.024;2022-09-03T20:13:41;22.60;49.30
24636;DHT22;12772;49.794;10.024;2022-09-03T20:18:10;22.50;49.40
24636;DHT22;12772;49.794;10.024;2022-09-03T20:39:53;22.10;50.50
24636;DHT22;12772;49.794;10.024;2022-09-03T20:44:20;22.10;50.50
24636;DHT22;12772;49.794;10.024;2022-09-03T20:53:05;22.10;50.50
24636;DHT22;12772;49.794;10.024;2022-09-03T20:57:27;22.10;50.50
24636;DHT22;12772;49.794;10.024;2022-09-03T21:01:58;22.10;50.60
24636;DHT22;12772;49.794;10.024;2022-09-03T21:10:53;22.10;50.10
24636;DHT22;12772;49.794;10.024;2022-09-03T21:24:14;22.00;50.10
24636;DHT22;12772;49.794;10.024;2022-09-03T21:28:25;21.90;49.90
24636;DHT22;12772;49.794;10.024;2022-09-03T21:36:49;21.80;50.20
24636;DHT22;12772;49.794;10.024;2022-09-03T21:40:58;21.70;50.10
24636;DHT22;12772;49.794;10.024;2022-09-03T21:45:11;21.70;50.10
24636;DHT22;12772;49.794;10.024;2022-09-03T21:49:24;21.60;50.00
24636;DHT22;12772;49.794;10.024;2022-09-03T21:53:36;21.60;50.50
24636;DHT22;12772;49.794;10.024;2022-09-03T21:57:55;21.50;50.80
24636;DHT22;12772;49.794;10.024;2022-09-03T22:06:26;21.30;51.40
24636;DHT22;12772;49.794;10.024;2022-09-03T22:10:50;21.20;51.50
24636;DHT22;12772;49.794;10.024;2022-09-03T22:14:54;21.10;51.70
24636;DHT22;12772;49.794;10.024;2022-09-03T22:18:57;21.10;51.90
24636;DHT22;12772;49.794;10.024;2022-09-03T22:23:09;21.00;52.30
24636;DHT22;12772;49.794;10.024;2022-09-03T22:27:35;20.90;52.40
24636;DHT22;12772;49.794;10.024;2022-09-03T22:32:27;20.90;52.70
24636;DHT22;12772;49.794;10.024;2022-09-03T22:36:45;20.90;52.90
24636;DHT22;12772;49.794;10.024;2022-09-03T22:40:49;20.80;53.10
24636;DHT22;12772;49.794;10.024;2022-09-03T22:45:11;20.80;53.20
24636;DHT22;12772;49.794;10.024;2022-09-03T22:49:33;20.80;53.40
24636;DHT22;12772;49.794;10.024;2022-09-03T22:54:05;20.70;53.50
24636;DHT22;12772;49.794;10.024;2022-09-03T22:58:15;20.70;53.50
24636;DHT22;12772;49.794;10.024;2022-09-03T23:02:25;20.70;53.50
24636;DHT22;12772;49.794;10.024;2022-09-03T23:06:40;20.60;53.40
24636;DHT22;12772;49.794;10.024;2022-09-03T23:15:03;20.60;52.40
24636;DHT22;12772;49.794;10.024;2022-09-03T23:19:16;20.50;52.10
24636;DHT22;12772;49.794;10.024;2022-09-03T23:23:24;20.50;51.90
24636;DHT22;12772;49.794;10.024;2022-09-03T23:27:57;20.50;51.70
24636;DHT22;12772;49.794;10.024;2022-09-03T23:32:01;20.40;51.30
24636;DHT22;12772;49.794;10.024;2022-09-03T23:40:44;20.20;51.70
24636;DHT22;12772;49.794;10.024;2022-09-03T23:53:31;20.10;51.50
24636;DHT22;12772;49.794;10.024;2022-09-03T23:57:39;20.00;51.60
